sensor_id;sensor_type;location;lat;lon;timestamp;P1;durP1;ratioP1;P2;durP2;ratioP2
21402;SDS011;10862;51.886;17.078;2024-03-23T00:53:42;52.80;;;29.40;;
21402;SDS011;10862;51.886;17.078;2024-03-23T00:56:08;54.93;;;29.87;;
21402;SDS011;10862;51.886;17.078;2024-03-23T00:58:33;60.60;;;30.73;;
21402;SDS011;10862;51.886;17.078;2024-03-23T01:01:00;55.27;;;32.23;;
21402;SDS011;10862;51.886;17.078;2024-03-23T01:03:25;60.33;;;31.20;;
21402;SDS011;10862;51.886;17.078;2024-03-23T01:05:51;56.67;;;32.37;;
21402;SDS011;10862;51.886;17.078;2024-03-23T01:08:19;54.07;;;31.87;;
21402;SDS011;10862;51.886;17.078;2024-03-23T01:10:53;67.80;;;32.97;;
21402;SDS011;10862;51.886;17.078;2024-03-23T01:13:22;57.40;;;31.50;;
21402;SDS011;10862;51.886;17.078;2024-03-23T01:15:49;57.93;;;32.20;;
21402;SDS011;10862;51.886;17.078;2024-03-23T01:18:16;57.43;;;33.17;;
21402;SDS011;10862;51.886;17.078;2024-03-23T01:20:42;53.43;;;32.50;;
21402;SDS011;10862;51.886;17.078;2024-03-23T01:23:08;62.17;;;31.50;;
21402;SDS011;10862;51.886;17.078;2024-03-23T01:25:34;55.23;;;31.63;;
21402;SDS011;10862;51.886;17.078;2024-03-23T01:27:59;55.00;;;30.77;;
21402;SDS011;10862;51.886;17.078;2024-03-23T01:30:25;57.80;;;32.50;;
21402;SDS011;10862;51.886;17.078;2024-03-23T01:32:50;52.33;;;32.10;;
21402;SDS011;10862;51.886;17.078;2024-03-23T01:35:16;56.87;;;31.03;;
21402;SDS011;10862;51.886;17.078;2024-03-23T01:37:41;52.77;;;27.00;;
21402;SDS011;10862;51.886;17.078;2024-03-23T01:40:07;55.00;;;27.67;;
21402;SDS011;10862;51.886;17.078;2024-03-23T01:42:33;50.13;;;28.03;;
21402;SDS011;10862;51.886;17.078;2024-03-23T01:44:59;51.23;;;28.20;;
21402;SDS011;10862;51.886;17.078;2024-03-23T01:47:24;49.77;;;27.60;;
21402;SDS011;10862;51.886;17.078;2024-03-23T01:49:50;55.87;;;26.73;;
21402;SDS011;10862;51.886;17.078;2024-03-23T01:52:16;55.83;;;28.87;;
21402;SDS011;10862;51.886;17.078;2024-03-23T01:54:42;55.00;;;27.73;;
21402;SDS011;10862;51.886;17.078;2024-03-23T01:57:09;56.73;;;28.53;;
21402;SDS011;10862;51.886;17.078;2024-03-23T01:59:35;51.43;;;26.20;;
21402;SDS011;10862;51.886;17.078;2024-03-23T02:02:01;48.27;;;25.80;;
21402;SDS011;10862;51.886;17.078;2024-03-23T02:04:26;49.37;;;27.13;;
21402;SDS011;10862;51.886;17.078;2024-03-23T02:06:52;54.70;;;28.30;;
21402;SDS011;10862;51.886;17.078;2024-03-23T02:09:18;55.80;;;27.73;;
21402;SDS011;10862;51.886;17.078;2024-03-23T02:11:43;59.67;;;27.87;;
21402;SDS011;10862;51.886;17.078;2024-03-23T02:14:09;56.40;;;27.97;;
21402;SDS011;10862;51.886;17.078;2024-03-23T02:16:34;56.73;;;26.83;;
21402;SDS011;10862;51.886;17.078;2024-03-23T02:19:00;56.83;;;28.50;;
21402;SDS011;10862;51.886;17.078;2024-03-23T02:21:26;53.80;;;26.63;;
21402;SDS011;10862;51.886;17.078;2024-03-23T02:23:52;59.93;;;27.90;;
21402;SDS011;10862;51.886;17.078;2024-03-23T02:26:18;57.17;;;27.30;;
21402;SDS011;10862;51.886;17.078;2024-03-23T02:28:43;52.63;;;27.77;;
21402;SDS011;10862;51.886;17.078;2024-03-23T02:31:09;54.70;;;29.37;;
21402;SDS011;10862;51.886;17.078;2024-03-23T02:33:35;50.57;;;28.23;;
21402;SDS011;10862;51.886;17.078;2024-03-23T02:36:03;59.63;;;30.37;;
21402;SDS011;10862;51.886;17.078;2024-03-23T02:38:29;54.73;;;29.80;;
21402;SDS011;10862;51.886;17.078;2024-03-23T02:40:54;58.33;;;30.10;;
21402;SDS011;10862;51.886;17.078;2024-03-23T02:43:20;57.47;;;30.40;;
21402;SDS011;10862;51.886;17.078;2024-03-23T02:45:46;56.60;;;31.07;;
21402;SDS011;10862;51.886;17.078;2024-03-23T02:48:12;61.63;;;31.93;;
21402;SDS011;10862;51.886;17.078;2024-03-23T02:50:37;56.27;;;31.23;;
21402;SDS011;10862;51.886;17.078;2024-03-23T02:53:03;56.23;;;28.30;;
21402;SDS011;10862;51.886;17.078;2024-03-23T02:55:29;54.13;;;29.17;;
21402;SDS011;10862;51.886;17.078;2024-03-23T02:57:54;56.30;;;30.70;;
21402;SDS011;10862;51.886;17.078;2024-03-23T03:00:20;64.07;;;30.07;;
21402;SDS011;10862;51.886;17.078;2024-03-23T03:02:46;59.27;;;29.97;;
21402;SDS011;10862;51.886;17.078;2024-03-23T03:05:11;61.17;;;29.77;;
21402;SDS011;10862;51.886;17.078;2024-03-23T03:07:38;61.50;;;30.17;;
21402;SDS011;10862;51.886;17.078;2024-03-23T03:10:06;60.97;;;31.27;;
21402;SDS011;10862;51.886;17.078;2024-03-23T03:12:33;56.90;;;29.73;;
21402;SDS011;10862;51.886;17.078;2024-03-23T03:14:59;59.43;;;29.20;;
21402;SDS011;10862;51.886;17.078;2024-03-23T03:17:24;49.10;;;29.57;;
21402;SDS011;10862;51.886;17.078;2024-03-23T03:19:50;59.43;;;30.03;;
21402;SDS011;10862;51.886;17.078;2024-03-23T03:22:20;53.03;;;30.50;;
21402;SDS011;10862;51.886;17.078;2024-03-23T03:24:46;52.57;;;29.27;;
21402;SDS011;10862;51.886;17.078;2024-03-23T03:27:12;55.93;;;30.43;;
21402;SDS011;10862;51.886;17.078;2024-03-23T03:29:37;57.20;;;31.37;;
21402;SDS011;10862;51.886;17.078;2024-03-23T03:32:03;49.93;;;30.57;;
21402;SDS011;10862;51.886;17.078;2024-03-23T03:34:29;53.10;;;30.73;;
21402;SDS011;10862;51.886;17.078;2024-03-23T03:36:55;58.83;;;32.80;;
21402;SDS011;10862;51.886;17.078;2024-03-23T03:39:21;54.33;;;31.73;;
21402;SDS011;10862;51.886;17.078;2024-03-23T03:41:47;59.23;;;26.43;;
21402;SDS011;10862;51.886;17.078;2024-03-23T03:44:13;49.27;;;26.30;;
21402;SDS011;10862;51.886;17.078;2024-03-23T03:46:39;46.53;;;25.50;;
21402;SDS011;10862;51.886;17.078;2024-03-23T03:49:04;52.30;;;25.73;;
21402;SDS011;10862;51.886;17.078;2024-03-23T03:51:30;46.47;;;24.63;;
21402;SDS011;10862;51.886;17.078;2024-03-23T03:53:56;47.80;;;24.50;;
21402;SDS011;10862;51.886;17.078;2024-03-23T03:56:21;52.40;;;25.47;;
21402;SDS011;10862;51.886;17.078;2024-03-23T03:58:47;51.30;;;27.73;;
21402;SDS011;10862;51.886;17.078;2024-03-23T04:01:13;52.20;;;27.37;;
21402;SDS011;10862;51.886;17.078;2024-03-23T04:03:39;51.73;;;26.27;;
21402;SDS011;10862;51.886;17.078;2024-03-23T04:06:08;51.57;;;27.20;;
21402;SDS011;10862;51.886;17.078;2024-03-23T04:08:37;49.87;;;26.57;;
21402;SDS011;10862;51.886;17.078;2024-03-23T04:11:03;48.33;;;26.03;;
21402;SDS011;10862;51.886;17.078;2024-03-23T04:13:28;52.27;;;26.03;;
21402;SDS011;10862;51.886;17.078;2024-03-23T04:15:54;47.23;;;26.23;;
21402;SDS011;10862;51.886;17.078;2024-03-23T04:18:20;45.37;;;24.53;;
21402;SDS011;10862;51.886;17.078;2024-03-23T04:20:47;53.23;;;26.73;;
21402;SDS011;10862;51.886;17.078;2024-03-23T04:23:13;48.03;;;25.00;;
21402;SDS011;10862;51.886;17.078;2024-03-23T04:25:39;45.70;;;25.40;;
21402;SDS011;10862;51.886;17.078;2024-03-23T04:28:04;46.43;;;26.47;;
21402;SDS011;10862;51.886;17.078;2024-03-23T04:30:30;53.00;;;26.50;;
21402;SDS011;10862;51.886;17.078;2024-03-23T04:32:56;63.67;;;27.93;;
21402;SDS011;10862;51.886;17.078;2024-03-23T04:35:23;51.43;;;29.17;;
21402;SDS011;10862;51.886;17.078;2024-03-23T04:37:50;50.10;;;27.27;;
21402;SDS011;10862;51.886;17.078;2024-03-23T04:40:17;47.50;;;28.43;;
21402;SDS011;10862;51.886;17.078;2024-03-23T04:42:43;48.20;;;28.77;;
21402;SDS011;10862;51.886;17.078;2024-03-23T04:45:09;49.47;;;28.40;;
21402;SDS011;10862;51.886;17.078;2024-03-23T04:47:35;51.07;;;28.30;;
21402;SDS011;10862;51.886;17.078;2024-03-23T04:50:03;54.50;;;30.33;;
21402;SDS011;10862;51.886;17.078;2024-03-23T04:52:30;52.37;;;29.90;;
21402;SDS011;10862;51.886;17.078;2024-03-23T04:54:55;53.17;;;29.13;;
21402;SDS011;10862;51.886;17.078;2024-03-23T04:57:21;54.50;;;30.23;;
21402;SDS011;10862;51.886;17.078;2024-03-23T04:59:47;53.50;;;30.87;;
21402;SDS011;10862;51.886;17.078;2024-03-23T05:02:13;48.83;;;27.57;;
21402;SDS011;10862;51.886;17.078;2024-03-23T05:04:39;52.13;;;26.10;;
21402;SDS011;10862;51.886;17.078;2024-03-23T05:07:05;52.20;;;27.13;;
21402;SDS011;10862;51.886;17.078;2024-03-23T05:09:31;51.93;;;29.00;;
21402;SDS011;10862;51.886;17.078;2024-03-23T05:11:58;50.90;;;29.47;;
21402;SDS011;10862;51.886;17.078;2024-03-23T05:14:25;59.53;;;33.93;;
21402;SDS011;10862;51.886;17.078;2024-03-23T05:16:51;47.57;;;31.23;;
21402;SDS011;10862;51.886;17.078;2024-03-23T05:19:17;51.53;;;33.03;;
21402;SDS011;10862;51.886;17.078;2024-03-23T05:21:43;54.40;;;33.30;;
21402;SDS011;10862;51.886;17.078;2024-03-23T05:24:08;53.67;;;30.87;;
21402;SDS011;10862;51.886;17.078;2024-03-23T05:26:34;46.37;;;30.73;;
21402;SDS011;10862;51.886;17.078;2024-03-23T05:29:00;47.00;;;25.60;;
21402;SDS011;10862;51.886;17.078;2024-03-23T05:31:27;59.80;;;29.97;;
21402;SDS011;10862;51.886;17.078;2024-03-23T05:33:54;56.27;;;31.53;;
21402;SDS011;10862;51.886;17.078;2024-03-23T05:36:20;64.47;;;34.73;;
21402;SDS011;10862;51.886;17.078;2024-03-23T05:38:46;56.60;;;32.87;;
21402;SDS011;10862;51.886;17.078;2024-03-23T05:41:12;60.33;;;31.17;;
21402;SDS011;10862;51.886;17.078;2024-03-23T05:43:39;52.33;;;30.07;;
21402;SDS011;10862;51.886;17.078;2024-03-23T05:46:04;45.10;;;27.83;;
21402;SDS011;10862;51.886;17.078;2024-03-23T05:48:30;54.27;;;29.03;;
21402;SDS011;10862;51.886;17.078;2024-03-23T05:50:56;58.43;;;28.53;;
21402;SDS011;10862;51.886;17.078;2024-03-23T05:53:23;57.47;;;26.07;;
21402;SDS011;10862;51.886;17.078;2024-03-23T05:55:49;53.13;;;27.27;;
21402;SDS011;10862;51.886;17.078;2024-03-23T05:58:16;50.13;;;27.57;;
21402;SDS011;10862;51.886;17.078;2024-03-23T06:00:42;48.17;;;27.37;;
21402;SDS011;10862;51.886;17.078;2024-03-23T06:03:08;49.07;;;27.80;;
21402;SDS011;10862;51.886;17.078;2024-03-23T06:05:35;51.10;;;27.50;;
21402;SDS011;10862;51.886;17.078;2024-03-23T06:08:01;58.90;;;29.40;;
21402;SDS011;10862;51.886;17.078;2024-03-23T06:10:27;64.60;;;35.57;;
21402;SDS011;10862;51.886;17.078;2024-03-23T06:12:53;61.57;;;33.70;;
21402;SDS011;10862;51.886;17.078;2024-03-23T06:15:19;56.97;;;29.53;;
21402;SDS011;10862;51.886;17.078;2024-03-23T06:17:44;52.83;;;29.93;;
21402;SDS011;10862;51.886;17.078;2024-03-23T06:20:10;52.40;;;28.20;;
21402;SDS011;10862;51.886;17.078;2024-03-23T06:22:36;51.13;;;30.27;;
21402;SDS011;10862;51.886;17.078;2024-03-23T06:25:02;46.97;;;28.50;;
21402;SDS011;10862;51.886;17.078;2024-03-23T06:27:28;53.70;;;26.73;;
21402;SDS011;10862;51.886;17.078;2024-03-23T06:29:54;67.83;;;35.90;;
21402;SDS011;10862;51.886;17.078;2024-03-23T06:32:20;66.43;;;34.33;;
21402;SDS011;10862;51.886;17.078;2024-03-23T06:34:45;56.50;;;30.57;;
21402;SDS011;10862;51.886;17.078;2024-03-23T06:37:11;48.80;;;28.80;;
21402;SDS011;10862;51.886;17.078;2024-03-23T06:39:37;73.10;;;37.97;;
21402;SDS011;10862;51.886;17.078;2024-03-23T06:42:03;66.97;;;36.07;;
21402;SDS011;10862;51.886;17.078;2024-03-23T06:44:29;56.27;;;30.30;;
21402;SDS011;10862;51.886;17.078;2024-03-23T06:46:55;46.27;;;26.80;;
21402;SDS011;10862;51.886;17.078;2024-03-23T06:49:22;41.70;;;26.53;;
21402;SDS011;10862;51.886;17.078;2024-03-23T06:51:48;38.67;;;26.40;;
21402;SDS011;10862;51.886;17.078;2024-03-23T06:54:14;44.43;;;27.23;;
21402;SDS011;10862;51.886;17.078;2024-03-23T06:56:41;42.37;;;27.63;;
21402;SDS011;10862;51.886;17.078;2024-03-23T06:59:06;47.73;;;29.17;;
21402;SDS011;10862;51.886;17.078;2024-03-23T07:01:32;43.33;;;26.73;;
21402;SDS011;10862;51.886;17.078;2024-03-23T07:03:58;46.93;;;26.17;;
21402;SDS011;10862;51.886;17.078;2024-03-23T07:06:23;44.13;;;26.67;;
21402;SDS011;10862;51.886;17.078;2024-03-23T07:08:49;42.57;;;25.93;;
21402;SDS011;10862;51.886;17.078;2024-03-23T07:11:21;45.17;;;25.90;;
21402;SDS011;10862;51.886;17.078;2024-03-23T07:13:49;40.33;;;24.77;;
21402;SDS011;10862;51.886;17.078;2024-03-23T07:16:15;42.13;;;25.60;;
21402;SDS011;10862;51.886;17.078;2024-03-23T07:18:41;45.57;;;25.00;;
21402;SDS011;10862;51.886;17.078;2024-03-23T07:21:07;47.60;;;26.03;;
21402;SDS011;10862;51.886;17.078;2024-03-23T07:23:33;41.13;;;24.87;;
21402;SDS011;10862;51.886;17.078;2024-03-23T07:26:00;38.87;;;23.43;;
21402;SDS011;10862;51.886;17.078;2024-03-23T07:28:27;39.13;;;23.83;;
21402;SDS011;10862;51.886;17.078;2024-03-23T07:33:29;40.87;;;23.53;;
21402;SDS011;10862;51.886;17.078;2024-03-23T07:53:13;48.53;;;27.23;;
21402;SDS011;10862;51.886;17.078;2024-03-23T07:55:38;41.23;;;25.97;;
21402;SDS011;10862;51.886;17.078;2024-03-23T07:58:04;42.03;;;25.33;;
21402;SDS011;10862;51.886;17.078;2024-03-23T08:00:36;44.07;;;23.83;;
21402;SDS011;10862;51.886;17.078;2024-03-23T08:06:23;44.00;;;25.67;;
21402;SDS011;10862;51.886;17.078;2024-03-23T08:08:55;35.83;;;23.73;;
21402;SDS011;10862;51.886;17.078;2024-03-23T08:11:33;45.10;;;28.97;;
21402;SDS011;10862;51.886;17.078;2024-03-23T08:14:30;41.03;;;26.50;;
21402;SDS011;10862;51.886;17.078;2024-03-23T08:17:41;41.37;;;27.37;;
21402;SDS011;10862;51.886;17.078;2024-03-23T08:20:25;42.17;;;27.53;;
21402;SDS011;10862;51.886;17.078;2024-03-23T08:22:52;46.40;;;28.53;;
21402;SDS011;10862;51.886;17.078;2024-03-23T08:25:17;49.07;;;27.80;;
21402;SDS011;10862;51.886;17.078;2024-03-23T08:27:44;43.37;;;29.60;;
21402;SDS011;10862;51.886;17.078;2024-03-23T08:30:10;52.33;;;30.97;;
21402;SDS011;10862;51.886;17.078;2024-03-23T08:32:36;39.57;;;28.07;;
21402;SDS011;10862;51.886;17.078;2024-03-23T08:35:02;42.00;;;27.43;;
21402;SDS011;10862;51.886;17.078;2024-03-23T08:37:28;45.60;;;27.27;;
21402;SDS011;10862;51.886;17.078;2024-03-23T08:39:53;45.37;;;28.87;;
21402;SDS011;10862;51.886;17.078;2024-03-23T08:42:19;59.67;;;33.53;;
21402;SDS011;10862;51.886;17.078;2024-03-23T08:44:46;42.80;;;27.50;;
21402;SDS011;10862;51.886;17.078;2024-03-23T08:47:14;46.10;;;26.40;;
21402;SDS011;10862;51.886;17.078;2024-03-23T08:49:40;42.10;;;29.13;;
21402;SDS011;10862;51.886;17.078;2024-03-23T08:52:06;42.43;;;27.53;;
21402;SDS011;10862;51.886;17.078;2024-03-23T08:54:32;51.97;;;31.87;;
21402;SDS011;10862;51.886;17.078;2024-03-23T08:56:58;42.63;;;28.87;;
21402;SDS011;10862;51.886;17.078;2024-03-23T08:59:24;43.53;;;27.23;;
21402;SDS011;10862;51.886;17.078;2024-03-23T09:01:50;42.60;;;27.30;;
21402;SDS011;10862;51.886;17.078;2024-03-23T09:04:15;39.60;;;28.20;;
21402;SDS011;10862;51.886;17.078;2024-03-23T09:06:43;58.03;;;35.17;;
21402;SDS011;10862;51.886;17.078;2024-03-23T09:09:09;39.77;;;28.57;;
21402;SDS011;10862;51.886;17.078;2024-03-23T09:11:35;106.47;;;34.87;;
21402;SDS011;10862;51.886;17.078;2024-03-23T09:14:00;54.60;;;35.63;;
21402;SDS011;10862;51.886;17.078;2024-03-23T09:16:26;53.20;;;34.10;;
21402;SDS011;10862;51.886;17.078;2024-03-23T09:18:52;45.60;;;32.27;;
21402;SDS011;10862;51.886;17.078;2024-03-23T09:21:17;42.97;;;30.13;;
21402;SDS011;10862;51.886;17.078;2024-03-23T09:23:43;54.43;;;33.73;;
21402;SDS011;10862;51.886;17.078;2024-03-23T09:26:09;57.57;;;34.40;;
21402;SDS011;10862;51.886;17.078;2024-03-23T09:28:35;44.83;;;33.97;;
21402;SDS011;10862;51.886;17.078;2024-03-23T09:31:07;48.40;;;33.30;;
21402;SDS011;10862;51.886;17.078;2024-03-23T09:33:34;52.13;;;34.97;;
21402;SDS011;10862;51.886;17.078;2024-03-23T09:36:04;48.80;;;33.03;;
21402;SDS011;10862;51.886;17.078;2024-03-23T09:38:30;53.63;;;32.97;;
21402;SDS011;10862;51.886;17.078;2024-03-23T09:40:56;44.87;;;33.60;;
21402;SDS011;10862;51.886;17.078;2024-03-23T09:43:22;61.23;;;37.63;;
21402;SDS011;10862;51.886;17.078;2024-03-23T09:45:48;47.00;;;32.90;;
21402;SDS011;10862;51.886;17.078;2024-03-23T09:48:14;53.27;;;34.83;;
21402;SDS011;10862;51.886;17.078;2024-03-23T09:50:41;53.30;;;31.90;;
21402;SDS011;10862;51.886;17.078;2024-03-23T09:53:08;45.93;;;31.90;;
21402;SDS011;10862;51.886;17.078;2024-03-23T09:55:35;47.47;;;31.40;;
21402;SDS011;10862;51.886;17.078;2024-03-23T09:58:01;44.17;;;30.30;;
21402;SDS011;10862;51.886;17.078;2024-03-23T10:00:27;48.23;;;32.00;;
21402;SDS011;10862;51.886;17.078;2024-03-23T10:02:55;46.37;;;30.77;;
21402;SDS011;10862;51.886;17.078;2024-03-23T10:05:23;45.50;;;31.87;;
21402;SDS011;10862;51.886;17.078;2024-03-23T10:07:49;44.60;;;31.97;;
21402;SDS011;10862;51.886;17.078;2024-03-23T10:10:15;49.13;;;33.80;;
21402;SDS011;10862;51.886;17.078;2024-03-23T10:12:45;61.37;;;34.90;;
21402;SDS011;10862;51.886;17.078;2024-03-23T10:15:17;54.10;;;32.97;;
21402;SDS011;10862;51.886;17.078;2024-03-23T10:17:47;53.53;;;35.03;;
21402;SDS011;10862;51.886;17.078;2024-03-23T10:20:13;56.43;;;35.67;;
21402;SDS011;10862;51.886;17.078;2024-03-23T10:22:45;57.93;;;36.43;;
21402;SDS011;10862;51.886;17.078;2024-03-23T10:25:11;54.07;;;35.97;;
21402;SDS011;10862;51.886;17.078;2024-03-23T10:27:37;65.97;;;39.20;;
21402;SDS011;10862;51.886;17.078;2024-03-23T10:30:12;57.87;;;36.70;;
21402;SDS011;10862;51.886;17.078;2024-03-23T10:32:42;56.13;;;36.30;;
21402;SDS011;10862;51.886;17.078;2024-03-23T10:35:14;66.70;;;40.43;;
21402;SDS011;10862;51.886;17.078;2024-03-23T10:37:44;60.00;;;38.27;;
21402;SDS011;10862;51.886;17.078;2024-03-23T10:40:14;66.47;;;40.47;;
21402;SDS011;10862;51.886;17.078;2024-03-23T10:42:40;63.17;;;37.87;;
21402;SDS011;10862;51.886;17.078;2024-03-23T10:45:06;66.67;;;39.90;;
21402;SDS011;10862;51.886;17.078;2024-03-23T10:47:34;57.67;;;36.43;;
21402;SDS011;10862;51.886;17.078;2024-03-23T10:50:01;65.87;;;37.77;;
21402;SDS011;10862;51.886;17.078;2024-03-23T10:52:28;79.63;;;41.07;;
21402;SDS011;10862;51.886;17.078;2024-03-23T10:54:54;67.50;;;35.87;;
21402;SDS011;10862;51.886;17.078;2024-03-23T10:57:23;72.17;;;38.00;;
21402;SDS011;10862;51.886;17.078;2024-03-23T11:00:09;53.17;;;29.83;;
21402;SDS011;10862;51.886;17.078;2024-03-23T11:02:36;59.40;;;33.33;;
21402;SDS011;10862;51.886;17.078;2024-03-23T11:05:02;90.27;;;48.23;;
21402;SDS011;10862;51.886;17.078;2024-03-23T11:07:51;63.73;;;35.73;;
21402;SDS011;10862;51.886;17.078;2024-03-23T11:10:24;64.23;;;34.03;;
21402;SDS011;10862;51.886;17.078;2024-03-23T11:12:52;55.93;;;32.93;;
21402;SDS011;10862;51.886;17.078;2024-03-23T11:15:18;55.63;;;33.63;;
21402;SDS011;10862;51.886;17.078;2024-03-23T11:18:01;70.83;;;39.83;;
21402;SDS011;10862;51.886;17.078;2024-03-23T11:20:32;57.27;;;32.93;;
21402;SDS011;10862;51.886;17.078;2024-03-23T11:22:58;64.43;;;34.23;;
21402;SDS011;10862;51.886;17.078;2024-03-23T11:25:25;69.10;;;32.70;;
21402;SDS011;10862;51.886;17.078;2024-03-23T11:27:52;59.33;;;31.77;;
21402;SDS011;10862;51.886;17.078;2024-03-23T11:30:22;73.20;;;34.50;;
21402;SDS011;10862;51.886;17.078;2024-03-23T11:32:54;73.83;;;35.37;;
21402;SDS011;10862;51.886;17.078;2024-03-23T11:35:34;69.07;;;34.53;;
21402;SDS011;10862;51.886;17.078;2024-03-23T11:38:12;67.30;;;33.00;;
21402;SDS011;10862;51.886;17.078;2024-03-23T11:43:06;61.93;;;33.70;;
21402;SDS011;10862;51.886;17.078;2024-03-23T11:45:36;61.90;;;31.80;;
21402;SDS011;10862;51.886;17.078;2024-03-23T11:51:38;58.87;;;30.97;;
21402;SDS011;10862;51.886;17.078;2024-03-23T11:54:26;61.97;;;32.83;;
21402;SDS011;10862;51.886;17.078;2024-03-23T12:00:32;54.77;;;30.97;;
21402;SDS011;10862;51.886;17.078;2024-03-23T12:03:03;59.50;;;33.57;;
21402;SDS011;10862;51.886;17.078;2024-03-23T12:05:32;56.97;;;30.50;;
21402;SDS011;10862;51.886;17.078;2024-03-23T12:11:10;58.30;;;31.67;;
21402;SDS011;10862;51.886;17.078;2024-03-23T12:13:38;58.97;;;32.00;;
21402;SDS011;10862;51.886;17.078;2024-03-23T12:18:36;58.00;;;32.17;;
21402;SDS011;10862;51.886;17.078;2024-03-23T12:21:03;69.87;;;37.57;;
21402;SDS011;10862;51.886;17.078;2024-03-23T12:23:29;128.67;;;57.37;;
21402;SDS011;10862;51.886;17.078;2024-03-23T12:25:54;67.83;;;36.57;;
21402;SDS011;10862;51.886;17.078;2024-03-23T12:28:20;77.27;;;41.30;;
21402;SDS011;10862;51.886;17.078;2024-03-23T12:30:46;155.90;;;61.07;;
21402;SDS011;10862;51.886;17.078;2024-03-23T12:33:11;98.03;;;48.23;;
21402;SDS011;10862;51.886;17.078;2024-03-23T12:35:37;88.57;;;44.40;;
21402;SDS011;10862;51.886;17.078;2024-03-23T12:38:15;87.03;;;47.60;;
21402;SDS011;10862;51.886;17.078;2024-03-23T12:40:57;82.23;;;47.63;;
21402;SDS011;10862;51.886;17.078;2024-03-23T12:46:41;75.23;;;41.67;;
21402;SDS011;10862;51.886;17.078;2024-03-23T12:55:36;81.20;;;42.00;;
21402;SDS011;10862;51.886;17.078;2024-03-23T12:58:02;110.30;;;61.83;;
21402;SDS011;10862;51.886;17.078;2024-03-23T13:00:37;109.40;;;57.70;;
21402;SDS011;10862;51.886;17.078;2024-03-23T13:05:51;197.67;;;124.17;;
21402;SDS011;10862;51.886;17.078;2024-03-23T13:08:17;130.93;;;74.70;;
21402;SDS011;10862;51.886;17.078;2024-03-23T13:10:51;96.30;;;47.03;;
21402;SDS011;10862;51.886;17.078;2024-03-23T13:13:33;60.60;;;40.53;;
21402;SDS011;10862;51.886;17.078;2024-03-23T13:16:03;73.00;;;44.70;;
21402;SDS011;10862;51.886;17.078;2024-03-23T13:18:34;84.87;;;49.53;;
21402;SDS011;10862;51.886;17.078;2024-03-23T13:24:27;59.90;;;36.47;;
21402;SDS011;10862;51.886;17.078;2024-03-23T13:27:03;62.90;;;36.97;;
21402;SDS011;10862;51.886;17.078;2024-03-23T13:37:25;35.07;;;26.63;;
21402;SDS011;10862;51.886;17.078;2024-03-23T13:44:12;49.20;;;30.47;;
21402;SDS011;10862;51.886;17.078;2024-03-23T14:05:01;66.80;;;30.00;;
21402;SDS011;10862;51.886;17.078;2024-03-23T14:17:39;25.35;;;22.60;;
21402;SDS011;10862;51.886;17.078;2024-03-23T14:20:05;43.80;;;27.40;;
21402;SDS011;10862;51.886;17.078;2024-03-23T14:22:34;62.70;;;30.73;;
21402;SDS011;10862;51.886;17.078;2024-03-23T14:25:00;114.33;;;102.10;;
21402;SDS011;10862;51.886;17.078;2024-03-23T14:27:25;20.33;;;17.43;;
21402;SDS011;10862;51.886;17.078;2024-03-23T14:29:51;17.50;;;15.90;;
21402;SDS011;10862;51.886;17.078;2024-03-23T14:32:16;28.40;;;18.50;;
21402;SDS011;10862;51.886;17.078;2024-03-23T14:34:42;30.80;;;22.50;;
21402;SDS011;10862;51.886;17.078;2024-03-23T14:49:21;28.55;;;19.15;;
21402;SDS011;10862;51.886;17.078;2024-03-23T14:51:47;28.57;;;21.47;;
21402;SDS011;10862;51.886;17.078;2024-03-23T14:54:12;59.83;;;31.03;;
21402;SDS011;10862;51.886;17.078;2024-03-23T14:56:38;63.90;;;24.83;;
21402;SDS011;10862;51.886;17.078;2024-03-23T14:59:04;73.90;;;35.90;;
21402;SDS011;10862;51.886;17.078;2024-03-23T19:33:09;43.50;;;20.90;;
21402;SDS011;10862;51.886;17.078;2024-03-23T19:35:34;57.20;;;22.70;;
21402;SDS011;10862;51.886;17.078;2024-03-23T19:50:07;48.40;;;22.37;;
21402;SDS011;10862;51.886;17.078;2024-03-23T20:21:42;55.10;;;24.10;;
21402;SDS011;10862;51.886;17.078;2024-03-23T20:24:08;67.93;;;27.23;;
21402;SDS011;10862;51.886;17.078;2024-03-23T20:26:33;86.97;;;31.37;;
21402;SDS011;10862;51.886;17.078;2024-03-23T20:28:59;74.10;;;29.47;;
21402;SDS011;10862;51.886;17.078;2024-03-23T20:31:24;54.93;;;23.50;;
21402;SDS011;10862;51.886;17.078;2024-03-23T20:33:50;35.77;;;19.20;;
21402;SDS011;10862;51.886;17.078;2024-03-23T20:36:17;32.55;;;18.75;;
